NC37 weather

Mountain View Aerodrome
Reidsville, North Carolina, United States

Public forecast

Using degrees Fahrenheit for public forecast. Weather courtesy of forecast.io.

Closest aviation weather report (METAR) to Mountain View Aerodrome

Report is more than 2 hours old.

Closest report is Rockingham County NC Shiloh Airport, 5.8 nm (10.8 km) N. Retrieved 2020/07/04 19:15 UTC (2 hours ago):

KSIF 041915Z AUTO 00000KT 7SM CLR 33/18 A2994 RMK AO2 T03270184

Closest aviation forecast (TAF) to Mountain View Aerodrome

Closest forecast is Piedmont Triad International Airport, 15.3 nm (28.3 km) SSW. Retrieved 2020/07/04 18:48 UTC (3 hours ago):

TAF KGSO 041740Z 0418/0518 VRB04KT P6SM SCT060 SCT250